sensor_id;sensor_type;location;lat;lon;timestamp;pressure;altitude;pressure_sealevel;temperature;humidity
13068;BME280;6600;51.362;6.686;2023-01-05T00:01:45;101219.97;;;12.82;100.00
13068;BME280;6600;51.362;6.686;2023-01-05T00:04:10;101217.00;;;12.90;100.00
13068;BME280;6600;51.362;6.686;2023-01-05T00:06:36;101220.75;;;12.89;100.00
13068;BME280;6600;51.362;6.686;2023-01-05T00:09:02;101216.59;;;12.93;100.00
13068;BME280;6600;51.362;6.686;2023-01-05T00:11:27;101211.63;;;12.90;100.00
13068;BME280;6600;51.362;6.686;2023-01-05T00:14:13;101219.09;;;12.88;100.00
13068;BME280;6600;51.362;6.686;2023-01-05T00:16:58;101223.25;;;12.84;100.00
13068;BME280;6600;51.362;6.686;2023-01-05T00:19:52;101212.13;;;12.80;100.00
13068;BME280;6600;51.362;6.686;2023-01-05T00:22:48;101206.69;;;12.87;100.00
13068;BME280;6600;51.362;6.686;2023-01-05T00:25:25;101216.31;;;12.70;100.00
13068;BME280;6600;51.362;6.686;2023-01-05T00:27:51;101208.09;;;12.64;100.00
13068;BME280;6600;51.362;6.686;2023-01-05T00:30:20;101213.69;;;12.63;100.00
13068;BME280;6600;51.362;6.686;2023-01-05T00:32:46;101222.56;;;12.63;100.00
13068;BME280;6600;51.362;6.686;2023-01-05T00:35:13;101237.06;;;12.62;100.00
13068;BME280;6600;51.362;6.686;2023-01-05T00:37:39;101231.66;;;12.62;100.00
13068;BME280;6600;51.362;6.686;2023-01-05T00:40:06;101220.09;;;12.62;100.00
13068;BME280;6600;51.362;6.686;2023-01-05T00:42:32;101224.03;;;12.59;100.00
13068;BME280;6600;51.362;6.686;2023-01-05T00:44:57;101223.41;;;12.64;100.00
13068;BME280;6600;51.362;6.686;2023-01-05T00:47:23;101225.47;;;12.69;100.00
13068;BME280;6600;51.362;6.686;2023-01-05T00:49:49;101224.59;;;12.75;100.00
13068;BME280;6600;51.362;6.686;2023-01-05T00:52:14;101230.41;;;12.72;100.00
13068;BME280;6600;51.362;6.686;2023-01-05T00:54:40;101234.56;;;12.68;100.00
13068;BME280;6600;51.362;6.686;2023-01-05T00:57:05;101229.19;;;12.68;100.00
13068;BME280;6600;51.362;6.686;2023-01-05T00:59:31;101233.72;;;12.67;100.00
13068;BME280;6600;51.362;6.686;2023-01-05T01:01:57;101235.00;;;12.64;100.00
13068;BME280;6600;51.362;6.686;2023-01-05T01:04:22;101232.03;;;12.73;100.00
13068;BME280;6600;51.362;6.686;2023-01-05T01:06:48;101227.34;;;12.61;100.00
13068;BME280;6600;51.362;6.686;2023-01-05T01:09:14;101234.63;;;12.54;100.00
13068;BME280;6600;51.362;6.686;2023-01-05T01:11:40;101240.41;;;12.58;100.00
13068;BME280;6600;51.362;6.686;2023-01-05T01:14:07;101230.84;;;12.69;100.00
13068;BME280;6600;51.362;6.686;2023-01-05T01:16:33;101236.22;;;12.62;100.00
13068;BME280;6600;51.362;6.686;2023-01-05T01:18:58;101243.91;;;12.58;100.00
13068;BME280;6600;51.362;6.686;2023-01-05T01:21:24;101230.88;;;12.55;100.00
13068;BME280;6600;51.362;6.686;2023-01-05T01:23:49;101234.41;;;12.56;100.00
13068;BME280;6600;51.362;6.686;2023-01-05T01:26:15;101223.94;;;12.48;100.00
13068;BME280;6600;51.362;6.686;2023-01-05T01:28:40;101215.97;;;12.59;100.00
13068;BME280;6600;51.362;6.686;2023-01-05T01:31:06;101232.78;;;12.48;100.00
13068;BME280;6600;51.362;6.686;2023-01-05T01:33:32;101238.00;;;12.43;100.00
13068;BME280;6600;51.362;6.686;2023-01-05T01:35:58;101234.09;;;12.39;100.00
13068;BME280;6600;51.362;6.686;2023-01-05T01:38:27;101238.44;;;12.40;100.00
13068;BME280;6600;51.362;6.686;2023-01-05T01:40:52;101257.38;;;12.52;100.00
13068;BME280;6600;51.362;6.686;2023-01-05T01:43:47;101247.28;;;12.47;100.00
13068;BME280;6600;51.362;6.686;2023-01-05T01:46:15;101248.31;;;12.46;100.00
13068;BME280;6600;51.362;6.686;2023-01-05T01:48:53;101260.28;;;12.50;100.00
13068;BME280;6600;51.362;6.686;2023-01-05T01:51:40;101248.75;;;12.43;100.00
13068;BME280;6600;51.362;6.686;2023-01-05T01:54:10;101251.66;;;12.35;100.00
13068;BME280;6600;51.362;6.686;2023-01-05T01:56:39;101255.00;;;12.37;100.00
13068;BME280;6600;51.362;6.686;2023-01-05T01:59:07;101272.75;;;12.38;100.00
13068;BME280;6600;51.362;6.686;2023-01-05T02:01:32;101272.31;;;12.41;100.00
13068;BME280;6600;51.362;6.686;2023-01-05T02:03:59;101277.50;;;12.43;100.00
13068;BME280;6600;51.362;6.686;2023-01-05T02:06:25;101285.97;;;12.40;100.00
13068;BME280;6600;51.362;6.686;2023-01-05T02:08:51;101273.97;;;12.42;100.00
13068;BME280;6600;51.362;6.686;2023-01-05T02:11:23;101276.06;;;12.40;100.00
13068;BME280;6600;51.362;6.686;2023-01-05T02:14:05;101273.59;;;12.32;100.00
13068;BME280;6600;51.362;6.686;2023-01-05T02:17:08;101293.88;;;12.28;100.00
13068;BME280;6600;51.362;6.686;2023-01-05T02:32:30;101284.81;;;12.23;100.00
13068;BME280;6600;51.362;6.686;2023-01-05T02:35:12;101293.88;;;12.28;100.00
13068;BME280;6600;51.362;6.686;2023-01-05T02:37:46;101287.28;;;12.31;100.00
13068;BME280;6600;51.362;6.686;2023-01-05T02:40:23;101295.53;;;12.29;100.00
13068;BME280;6600;51.362;6.686;2023-01-05T02:42:52;101299.66;;;12.25;100.00
13068;BME280;6600;51.362;6.686;2023-01-05T02:45:21;101302.56;;;12.30;100.00
13068;BME280;6600;51.362;6.686;2023-01-05T02:47:46;101294.53;;;12.24;100.00
13068;BME280;6600;51.362;6.686;2023-01-05T02:50:25;101295.53;;;12.29;100.00
13068;BME280;6600;51.362;6.686;2023-01-05T02:52:59;101309.59;;;12.25;100.00
13068;BME280;6600;51.362;6.686;2023-01-05T02:55:53;101302.34;;;12.25;100.00
13068;BME280;6600;51.362;6.686;2023-01-05T02:58:24;101294.28;;;12.25;100.00
13068;BME280;6600;51.362;6.686;2023-01-05T03:01:24;101285.63;;;12.23;100.00
13068;BME280;6600;51.362;6.686;2023-01-05T03:03:56;101291.00;;;12.23;100.00
13068;BME280;6600;51.362;6.686;2023-01-05T03:06:36;101293.28;;;12.26;100.00
13068;BME280;6600;51.362;6.686;2023-01-05T03:09:15;101288.94;;;12.25;100.00
13068;BME280;6600;51.362;6.686;2023-01-05T03:11:50;101290.22;;;12.16;100.00
13068;BME280;6600;51.362;6.686;2023-01-05T03:14:45;101291.84;;;12.17;100.00
13068;BME280;6600;51.362;6.686;2023-01-05T03:17:14;101285.88;;;12.15;100.00
13068;BME280;6600;51.362;6.686;2023-01-05T03:19:44;101292.03;;;12.22;100.00
13068;BME280;6600;51.362;6.686;2023-01-05T03:22:20;101298.44;;;12.21;100.00
13068;BME280;6600;51.362;6.686;2023-01-05T03:25:07;101307.72;;;12.25;100.00
13068;BME280;6600;51.362;6.686;2023-01-05T03:27:52;101299.72;;;12.12;100.00
13068;BME280;6600;51.362;6.686;2023-01-05T03:31:08;101306.31;;;12.16;100.00
13068;BME280;6600;51.362;6.686;2023-01-05T03:33:57;101324.50;;;12.14;100.00
13068;BME280;6600;51.362;6.686;2023-01-05T03:36:49;101313.34;;;12.10;100.00
13068;BME280;6600;51.362;6.686;2023-01-05T03:39:18;101300.75;;;12.11;100.00
13068;BME280;6600;51.362;6.686;2023-01-05T03:41:44;101311.28;;;12.12;100.00
13068;BME280;6600;51.362;6.686;2023-01-05T03:44:10;101315.84;;;12.12;100.00
13068;BME280;6600;51.362;6.686;2023-01-05T03:46:38;101307.41;;;12.02;100.00
13068;BME280;6600;51.362;6.686;2023-01-05T03:49:04;101294.81;;;11.96;100.00
13068;BME280;6600;51.362;6.686;2023-01-05T03:51:29;101307.59;;;11.94;100.00
13068;BME280;6600;51.362;6.686;2023-01-05T03:53:55;101304.06;;;12.00;100.00
13068;BME280;6600;51.362;6.686;2023-01-05T03:56:20;101308.66;;;11.93;100.00
13068;BME280;6600;51.362;6.686;2023-01-05T03:58:45;101316.72;;;11.93;100.00
13068;BME280;6600;51.362;6.686;2023-01-05T04:01:10;101305.97;;;11.93;100.00
13068;BME280;6600;51.362;6.686;2023-01-05T04:03:36;101307.19;;;11.97;100.00
13068;BME280;6600;51.362;6.686;2023-01-05T04:06:01;101302.25;;;11.94;100.00
13068;BME280;6600;51.362;6.686;2023-01-05T04:08:27;101307.59;;;11.94;100.00
13068;BME280;6600;51.362;6.686;2023-01-05T04:10:52;101307.19;;;11.97;100.00
13068;BME280;6600;51.362;6.686;2023-01-05T04:13:18;101309.69;;;11.92;100.00
13068;BME280;6600;51.362;6.686;2023-01-05T04:15:44;101307.44;;;11.89;100.00
13068;BME280;6600;51.362;6.686;2023-01-05T04:18:09;101324.16;;;11.91;100.00
13068;BME280;6600;51.362;6.686;2023-01-05T04:20:34;101320.00;;;11.95;100.00
13068;BME280;6600;51.362;6.686;2023-01-05T04:23:00;101312.59;;;11.84;100.00
13068;BME280;6600;51.362;6.686;2023-01-05T04:25:25;101316.72;;;11.80;100.00
13068;BME280;6600;51.362;6.686;2023-01-05T04:27:50;101309.91;;;11.84;100.00
13068;BME280;6600;51.362;6.686;2023-01-05T04:30:16;101316.72;;;11.73;100.00
13068;BME280;6600;51.362;6.686;2023-01-05T04:32:41;101322.91;;;11.67;100.00
13068;BME280;6600;51.362;6.686;2023-01-05T04:35:07;101313.00;;;11.61;100.00
13068;BME280;6600;51.362;6.686;2023-01-05T04:37:32;101321.25;;;11.59;100.00
13068;BME280;6600;51.362;6.686;2023-01-05T04:39:57;101332.41;;;11.56;100.00
13068;BME280;6600;51.362;6.686;2023-01-05T04:42:23;101331.56;;;11.56;100.00
13068;BME280;6600;51.362;6.686;2023-01-05T04:44:49;101332.00;;;11.46;100.00
13068;BME280;6600;51.362;6.686;2023-01-05T04:47:14;101328.28;;;11.47;100.00
13068;BME280;6600;51.362;6.686;2023-01-05T04:49:39;101328.28;;;11.47;100.00
13068;BME280;6600;51.362;6.686;2023-01-05T04:52:05;101337.38;;;11.46;100.00
13068;BME280;6600;51.362;6.686;2023-01-05T04:54:31;101329.72;;;11.50;100.00
13068;BME280;6600;51.362;6.686;2023-01-05T04:56:57;101331.81;;;11.54;100.00
13068;BME280;6600;51.362;6.686;2023-01-05T04:59:22;101331.81;;;11.54;100.00
13068;BME280;6600;51.362;6.686;2023-01-05T05:01:47;101326.63;;;11.59;100.00
13068;BME280;6600;51.362;6.686;2023-01-05T05:04:13;101327.88;;;11.57;100.00
13068;BME280;6600;51.362;6.686;2023-01-05T05:06:39;101329.72;;;11.56;100.00
13068;BME280;6600;51.362;6.686;2023-01-05T05:09:04;101339.03;;;11.60;100.00
13068;BME280;6600;51.362;6.686;2023-01-05T05:11:29;101334.91;;;11.64;100.00
13068;BME280;6600;51.362;6.686;2023-01-05T05:13:55;101335.31;;;11.61;100.00
13068;BME280;6600;51.362;6.686;2023-01-05T05:16:20;101333.25;;;11.50;100.00
13068;BME280;6600;51.362;6.686;2023-01-05T05:18:45;101333.84;;;11.65;100.00
13068;BME280;6600;51.362;6.686;2023-01-05T05:21:11;101347.25;;;11.59;100.00
13068;BME280;6600;51.362;6.686;2023-01-05T05:23:36;101348.72;;;11.61;100.00
13068;BME280;6600;51.362;6.686;2023-01-05T05:26:01;101343.16;;;11.56;100.00
13068;BME280;6600;51.362;6.686;2023-01-05T05:28:27;101346.44;;;11.58;100.00
13068;BME280;6600;51.362;6.686;2023-01-05T05:30:53;101346.47;;;11.65;100.00
13068;BME280;6600;51.362;6.686;2023-01-05T05:33:20;101351.41;;;11.61;100.00
13068;BME280;6600;51.362;6.686;2023-01-05T05:35:46;101351.41;;;11.61;100.00
13068;BME280;6600;51.362;6.686;2023-01-05T05:38:11;101339.03;;;11.60;100.00
13068;BME280;6600;51.362;6.686;2023-01-05T05:40:36;101351.63;;;11.53;100.00
13068;BME280;6600;51.362;6.686;2023-01-05T05:43:02;101358.41;;;11.56;100.00
13068;BME280;6600;51.362;6.686;2023-01-05T05:45:27;101363.78;;;11.62;100.00
13068;BME280;6600;51.362;6.686;2023-01-05T05:47:52;101370.22;;;11.61;100.00
13068;BME280;6600;51.362;6.686;2023-01-05T05:50:18;101376.19;;;11.50;100.00
13068;BME280;6600;51.362;6.686;2023-01-05T05:52:43;101377.44;;;11.54;100.00
13068;BME280;6600;51.362;6.686;2023-01-05T05:55:08;101386.09;;;11.56;100.00
13068;BME280;6600;51.362;6.686;2023-01-05T05:57:34;101398.69;;;11.49;100.00
13068;BME280;6600;51.362;6.686;2023-01-05T05:59:59;101397.25;;;11.53;100.00
13068;BME280;6600;51.362;6.686;2023-01-05T06:02:24;101393.91;;;11.45;100.00
13068;BME280;6600;51.362;6.686;2023-01-05T06:04:50;101400.94;;;11.46;100.00
13068;BME280;6600;51.362;6.686;2023-01-05T06:07:15;101401.78;;;11.46;100.00
13068;BME280;6600;51.362;6.686;2023-01-05T06:09:40;101388.13;;;11.41;100.00
13068;BME280;6600;51.362;6.686;2023-01-05T06:12:06;101393.91;;;11.45;100.00
13068;BME280;6600;51.362;6.686;2023-01-05T06:14:31;101410.00;;;11.38;100.00
13068;BME280;6600;51.362;6.686;2023-01-05T06:16:56;101411.25;;;11.42;100.00
13068;BME280;6600;51.362;6.686;2023-01-05T06:19:22;101409.16;;;11.38;100.00
13068;BME280;6600;51.362;6.686;2023-01-05T06:21:47;101414.13;;;11.34;100.00
13068;BME280;6600;51.362;6.686;2023-01-05T06:24:12;101416.22;;;11.45;100.00
13068;BME280;6600;51.362;6.686;2023-01-05T06:26:38;101416.19;;;11.32;100.00
13068;BME280;6600;51.362;6.686;2023-01-05T06:29:03;101418.25;;;11.24;100.00
13068;BME280;6600;51.362;6.686;2023-01-05T06:31:28;101421.97;;;11.29;100.00
13068;BME280;6600;51.362;6.686;2023-01-05T06:33:54;101426.72;;;11.34;100.00
13068;BME280;6600;51.362;6.686;2023-01-05T06:36:19;101430.22;;;11.34;100.00
13068;BME280;6600;51.362;6.686;2023-01-05T06:38:45;101429.44;;;11.40;100.00
13068;BME280;6600;51.362;6.686;2023-01-05T06:41:10;101434.97;;;11.32;100.00
13068;BME280;6600;51.362;6.686;2023-01-05T06:43:35;101430.63;;;11.38;100.00
13068;BME280;6600;51.362;6.686;2023-01-05T06:46:01;101430.63;;;11.38;100.00
13068;BME280;6600;51.362;6.686;2023-01-05T06:48:26;101426.50;;;11.35;100.00
13068;BME280;6600;51.362;6.686;2023-01-05T06:50:51;101419.91;;;11.38;100.00
13068;BME280;6600;51.362;6.686;2023-01-05T06:53:16;101426.72;;;11.27;100.00
13068;BME280;6600;51.362;6.686;2023-01-05T06:55:43;101424.84;;;11.34;100.00
13068;BME280;6600;51.362;6.686;2023-01-05T06:58:08;101432.28;;;11.32;100.00
13068;BME280;6600;51.362;6.686;2023-01-05T07:00:34;101427.75;;;11.33;100.00
13068;BME280;6600;51.362;6.686;2023-01-05T07:02:59;101430.44;;;11.26;100.00
13068;BME280;6600;51.362;6.686;2023-01-05T07:05:24;101438.28;;;11.34;100.00
13068;BME280;6600;51.362;6.686;2023-01-05T07:07:50;101444.03;;;11.25;100.00
13068;BME280;6600;51.362;6.686;2023-01-05T07:10:15;101433.28;;;11.25;100.00
13068;BME280;6600;51.362;6.686;2023-01-05T07:12:41;101437.25;;;11.35;100.00
13068;BME280;6600;51.362;6.686;2023-01-05T07:15:07;101441.59;;;11.36;100.00
13068;BME280;6600;51.362;6.686;2023-01-05T07:17:32;101452.50;;;11.35;100.00
13068;BME280;6600;51.362;6.686;2023-01-05T07:19:58;101455.81;;;11.30;100.00
13068;BME280;6600;51.362;6.686;2023-01-05T07:22:23;101457.47;;;11.31;100.00
13068;BME280;6600;51.362;6.686;2023-01-05T07:24:48;101463.22;;;11.28;100.00
13068;BME280;6600;51.362;6.686;2023-01-05T07:27:14;101468.00;;;11.39;100.00
13068;BME280;6600;51.362;6.686;2023-01-05T07:29:39;101472.78;;;11.44;100.00
13068;BME280;6600;51.362;6.686;2023-01-05T07:32:05;101467.41;;;11.44;100.00
13068;BME280;6600;51.362;6.686;2023-01-05T07:34:30;101473.16;;;11.34;100.00
13068;BME280;6600;51.362;6.686;2023-01-05T07:36:56;101475.44;;;11.37;100.00
13068;BME280;6600;51.362;6.686;2023-01-05T07:39:21;101472.97;;;11.42;100.00
13068;BME280;6600;51.362;6.686;2023-01-05T07:41:46;101464.72;;;11.37;100.00
13068;BME280;6600;51.362;6.686;2023-01-05T07:44:12;101457.50;;;11.44;100.00
13068;BME280;6600;51.362;6.686;2023-01-05T07:46:37;101465.34;;;11.39;100.00
13068;BME280;6600;51.362;6.686;2023-01-05T07:49:03;101480.00;;;11.43;100.00
13068;BME280;6600;51.362;6.686;2023-01-05T07:51:28;101477.09;;;11.45;100.00
13068;BME280;6600;51.362;6.686;2023-01-05T07:53:54;101486.81;;;11.46;100.00
13068;BME280;6600;51.362;6.686;2023-01-05T07:56:20;101491.75;;;11.42;100.00
13068;BME280;6600;51.362;6.686;2023-01-05T07:58:45;101490.09;;;11.41;100.00
13068;BME280;6600;51.362;6.686;2023-01-05T08:01:13;101499.19;;;11.40;100.00
13068;BME280;6600;51.362;6.686;2023-01-05T08:03:39;101501.66;;;11.42;100.00
13068;BME280;6600;51.362;6.686;2023-01-05T08:06:07;101501.69;;;11.48;100.00
13068;BME280;6600;51.362;6.686;2023-01-05T08:08:33;101508.25;;;11.39;100.00
13068;BME280;6600;51.362;6.686;2023-01-05T08:10:59;101516.56;;;11.44;100.00
13068;BME280;6600;51.362;6.686;2023-01-05T08:13:27;101515.53;;;11.52;100.00
13068;BME280;6600;51.362;6.686;2023-01-05T08:16:11;101521.09;;;11.50;100.00
13068;BME280;6600;51.362;6.686;2023-01-05T08:18:36;101523.16;;;11.48;100.00
13068;BME280;6600;51.362;6.686;2023-01-05T08:21:02;101513.25;;;11.55;100.00
13068;BME280;6600;51.362;6.686;2023-01-05T08:23:29;101521.94;;;11.57;100.00
13068;BME280;6600;51.362;6.686;2023-01-05T08:25:55;101527.09;;;11.52;100.00
13068;BME280;6600;51.362;6.686;2023-01-05T08:28:22;101524.63;;;11.51;100.00
13068;BME280;6600;51.362;6.686;2023-01-05T08:30:47;101532.47;;;11.59;100.00
13068;BME280;6600;51.362;6.686;2023-01-05T08:33:13;101533.94;;;11.61;100.00
13068;BME280;6600;51.362;6.686;2023-01-05T08:35:39;101530.22;;;11.62;100.00
13068;BME280;6600;51.362;6.686;2023-01-05T08:38:05;101528.56;;;11.61;100.00
13068;BME280;6600;51.362;6.686;2023-01-05T08:40:31;101536.00;;;11.59;100.00
13068;BME280;6600;51.362;6.686;2023-01-05T08:42:56;101534.56;;;11.63;100.00
13068;BME280;6600;51.362;6.686;2023-01-05T08:45:21;101542.25;;;11.73;100.00
13068;BME280;6600;51.362;6.686;2023-01-05T08:47:47;101540.13;;;11.62;100.00
13068;BME280;6600;51.362;6.686;2023-01-05T08:50:13;101553.59;;;11.69;100.00
13068;BME280;6600;51.362;6.686;2023-01-05T08:52:38;101553.59;;;11.69;100.00
13068;BME280;6600;51.362;6.686;2023-01-05T08:55:04;101557.06;;;11.62;100.00
13068;BME280;6600;51.362;6.686;2023-01-05T08:57:29;101555.19;;;11.63;100.00
13068;BME280;6600;51.362;6.686;2023-01-05T08:59:55;101554.59;;;11.68;100.00
13068;BME280;6600;51.362;6.686;2023-01-05T09:02:20;101553.34;;;11.63;100.00
13068;BME280;6600;51.362;6.686;2023-01-05T09:04:45;101561.25;;;11.72;100.00
13068;BME280;6600;51.362;6.686;2023-01-05T09:07:11;101563.97;;;11.78;100.00
13068;BME280;6600;51.362;6.686;2023-01-05T09:09:36;101564.56;;;11.74;100.00
13068;BME280;6600;51.362;6.686;2023-01-05T09:12:01;101564.97;;;11.77;100.00
13068;BME280;6600;51.362;6.686;2023-01-05T09:14:27;101578.00;;;11.74;100.00
13068;BME280;6600;51.362;6.686;2023-01-05T09:16:52;101574.88;;;11.77;100.00
13068;BME280;6600;51.362;6.686;2023-01-05T09:19:17;101574.53;;;11.93;100.00
13068;BME280;6600;51.362;6.686;2023-01-05T09:21:43;101574.31;;;11.88;100.00
13068;BME280;6600;51.362;6.686;2023-01-05T09:24:10;101576.59;;;11.91;100.00
13068;BME280;6600;51.362;6.686;2023-01-05T09:26:39;101578.88;;;11.94;100.00
13068;BME280;6600;51.362;6.686;2023-01-05T09:29:04;101578.25;;;11.92;100.00
13068;BME280;6600;51.362;6.686;2023-01-05T09:31:30;101585.06;;;11.88;100.00
13068;BME280;6600;51.362;6.686;2023-01-05T09:33:56;101594.34;;;11.79;100.00
13068;BME280;6600;51.362;6.686;2023-01-05T09:36:21;101598.88;;;11.85;100.00
13068;BME280;6600;51.362;6.686;2023-01-05T09:38:49;101597.88;;;11.86;100.00
13068;BME280;6600;51.362;6.686;2023-01-05T09:43:45;101605.38;;;12.17;100.00
13068;BME280;6600;51.362;6.686;2023-01-05T09:46:25;101606.38;;;12.09;100.00
13068;BME280;6600;51.362;6.686;2023-01-05T09:48:56;101615.47;;;12.01;100.00
13068;BME280;6600;51.362;6.686;2023-01-05T09:51:22;101623.31;;;12.03;100.00
13068;BME280;6600;51.362;6.686;2023-01-05T09:53:47;101621.06;;;12.06;100.00
13068;BME280;6600;51.362;6.686;2023-01-05T09:56:34;101624.53;;;12.07;100.00
13068;BME280;6600;51.362;6.686;2023-01-05T09:59:09;101633.22;;;11.96;100.00
13068;BME280;6600;51.362;6.686;2023-01-05T10:01:37;101627.03;;;12.02;100.00
13068;BME280;6600;51.362;6.686;2023-01-05T10:04:24;101636.56;;;12.11;100.00
13068;BME280;6600;51.362;6.686;2023-01-05T10:06:59;101641.09;;;12.10;100.00
13068;BME280;6600;51.362;6.686;2023-01-05T10:09:36;101628.72;;;12.16;100.00
13068;BME280;6600;51.362;6.686;2023-01-05T10:12:41;101632.84;;;12.25;100.00
13068;BME280;6600;51.362;6.686;2023-01-05T10:15:26;101633.69;;;12.19;100.00
13068;BME280;6600;51.362;6.686;2023-01-05T10:17:54;101637.63;;;12.23;100.00
13068;BME280;6600;51.362;6.686;2023-01-05T10:20:44;101645.47;;;12.31;100.00
13068;BME280;6600;51.362;6.686;2023-01-05T10:26:13;101644.88;;;12.29;100.00
13068;BME280;6600;51.362;6.686;2023-01-05T10:42:28;101650.25;;;12.42;100.00
13068;BME280;6600;51.362;6.686;2023-01-05T10:45:00;101651.31;;;12.48;100.00
13068;BME280;6600;51.362;6.686;2023-01-05T10:47:28;101659.97;;;12.37;100.00
13068;BME280;6600;51.362;6.686;2023-01-05T10:49:55;101661.84;;;12.43;100.00
13068;BME280;6600;51.362;6.686;2023-01-05T10:52:21;101664.53;;;12.43;100.00
13068;BME280;6600;51.362;6.686;2023-01-05T10:54:54;101671.16;;;12.53;100.00
13068;BME280;6600;51.362;6.686;2023-01-05T10:57:31;101665.97;;;12.58;100.00
13068;BME280;6600;51.362;6.686;2023-01-05T11:00:16;101671.56;;;12.50;100.00
13068;BME280;6600;51.362;6.686;2023-01-05T11:02:51;101664.75;;;12.54;100.00
13068;BME280;6600;51.362;6.686;2023-01-05T11:05:31;101665.16;;;12.51;100.00
13068;BME280;6600;51.362;6.686;2023-01-05T11:08:00;101668.03;;;12.43;100.00
13068;BME280;6600;51.362;6.686;2023-01-05T11:10:40;101668.47;;;12.53;100.00
13068;BME280;6600;51.362;6.686;2023-01-05T11:15:43;101668.88;;;12.44;100.00
13068;BME280;6600;51.362;6.686;2023-01-05T11:18:25;101671.16;;;12.53;100.00
13068;BME280;6600;51.362;6.686;2023-01-05T11:21:17;101664.94;;;12.53;100.00
13068;BME280;6600;51.362;6.686;2023-01-05T11:23:53;101668.88;;;12.57;100.00
13068;BME280;6600;51.362;6.686;2023-01-05T11:26:29;101667.22;;;12.56;100.00
13068;BME280;6600;51.362;6.686;2023-01-05T11:31:39;101668.66;;;12.58;100.00
13068;BME280;6600;51.362;6.686;2023-01-05T11:34:42;101670.97;;;12.61;100.00
13068;BME280;6600;51.362;6.686;2023-01-05T11:37:28;101678.41;;;12.73;100.00
13068;BME280;6600;51.362;6.686;2023-01-05T11:39:59;101675.53;;;12.68;100.00
13068;BME280;6600;51.362;6.686;2023-01-05T11:45:03;101682.56;;;12.75;100.00
13068;BME280;6600;51.362;6.686;2023-01-05T11:47:33;101674.06;;;12.72;100.00
13068;BME280;6600;51.362;6.686;2023-01-05T11:50:05;101668.28;;;12.61;100.00
13068;BME280;6600;51.362;6.686;2023-01-05T11:52:43;101675.28;;;12.69;100.00
13068;BME280;6600;51.362;6.686;2023-01-05T11:57:47;101662.69;;;12.70;100.00
13068;BME280;6600;51.362;6.686;2023-01-05T12:00:23;101665.97;;;12.58;100.00
13068;BME280;6600;51.362;6.686;2023-01-05T12:03:28;101664.34;;;12.71;100.00
13068;BME280;6600;51.362;6.686;2023-01-05T12:05:57;101658.34;;;12.69;100.00
13068;BME280;6600;51.362;6.686;2023-01-05T12:08:40;101657.53;;;12.68;100.00
13068;BME280;6600;51.362;6.686;2023-01-05T12:16:45;101670.13;;;12.68;100.00
13068;BME280;6600;51.362;6.686;2023-01-05T12:22:29;101666.22;;;12.63;100.00
13068;BME280;6600;51.362;6.686;2023-01-05T12:30:17;101667.66;;;12.73;100.00
13068;BME280;6600;51.362;6.686;2023-01-05T12:48:46;101670.75;;;12.70;100.00
13068;BME280;6600;51.362;6.686;2023-01-05T12:51:15;101666.44;;;12.82;100.00
13068;BME280;6600;51.362;6.686;2023-01-05T12:56:29;101671.81;;;12.69;100.00
13068;BME280;6600;51.362;6.686;2023-01-05T13:01:30;101674.03;;;12.58;100.00
13068;BME280;6600;51.362;6.686;2023-01-05T13:04:02;101668.47;;;12.60;100.00
13068;BME280;6600;51.362;6.686;2023-01-05T13:06:38;101664.13;;;12.65;100.00
13068;BME280;6600;51.362;6.686;2023-01-05T13:09:15;101673.44;;;12.63;100.00
13068;BME280;6600;51.362;6.686;2023-01-05T13:11:55;101670.97;;;12.61;100.00
13068;BME280;6600;51.362;6.686;2023-01-05T13:14:27;101664.75;;;12.68;100.00
13068;BME280;6600;51.362;6.686;2023-01-05T13:17:00;101665.78;;;12.53;100.00
13068;BME280;6600;51.362;6.686;2023-01-05T13:19:34;101666.38;;;12.55;100.00
13068;BME280;6600;51.362;6.686;2023-01-05T13:22:05;101659.81;;;12.78;100.00
13068;BME280;6600;51.362;6.686;2023-01-05T13:24:38;101664.34;;;12.84;100.00
13068;BME280;6600;51.362;6.686;2023-01-05T13:27:09;101671.38;;;12.85;100.00
13068;BME280;6600;51.362;6.686;2023-01-05T13:29:38;101665.59;;;12.88;100.00
13068;BME280;6600;51.362;6.686;2023-01-05T13:35:15;101668.69;;;13.04;100.00
13068;BME280;6600;51.362;6.686;2023-01-05T13:38:00;101666.41;;;13.08;100.00
13068;BME280;6600;51.362;6.686;2023-01-05T13:40:53;101666.41;;;13.14;100.00
13068;BME280;6600;51.362;6.686;2023-01-05T13:54:08;101672.63;;;13.15;99.66
13068;BME280;6600;51.362;6.686;2023-01-05T13:56:37;101673.47;;;13.09;99.77
13068;BME280;6600;51.362;6.686;2023-01-05T13:59:07;101668.91;;;13.03;99.72
13068;BME280;6600;51.362;6.686;2023-01-05T14:01:42;101670.13;;;12.94;100.00
13068;BME280;6600;51.362;6.686;2023-01-05T14:04:29;101673.47;;;12.96;99.67
13068;BME280;6600;51.362;6.686;2023-01-05T14:07:21;101667.84;;;13.04;99.86
13068;BME280;6600;51.362;6.686;2023-01-05T14:09:50;101668.47;;;13.06;100.00
13068;BME280;6600;51.362;6.686;2023-01-05T14:20:47;101671.59;;;13.03;99.28
13068;BME280;6600;51.362;6.686;2023-01-05T14:25:57;101668.91;;;13.03;99.70
13068;BME280;6600;51.362;6.686;2023-01-05T14:34:00;101681.72;;;12.88;99.89
13068;BME280;6600;51.362;6.686;2023-01-05T14:42:01;101682.56;;;12.75;100.00
13068;BME280;6600;51.362;6.686;2023-01-05T14:44:33;101688.78;;;12.82;99.10
13068;BME280;6600;51.362;6.686;2023-01-05T14:47:00;101683.38;;;12.76;99.74
13068;BME280;6600;51.362;6.686;2023-01-05T14:49:33;101685.44;;;12.67;100.00
13068;BME280;6600;51.362;6.686;2023-01-05T14:52:00;101683.78;;;12.66;100.00
13068;BME280;6600;51.362;6.686;2023-01-05T15:00:03;101694.94;;;12.63;98.07
13068;BME280;6600;51.362;6.686;2023-01-05T15:02:32;101699.06;;;12.59;98.58
13068;BME280;6600;51.362;6.686;2023-01-05T15:05:04;101693.69;;;12.52;98.86